createdAt,value
2019-05-19T00:01:33.805Z,10.83
2019-05-19T00:04:04.460Z,11.03
2019-05-19T00:06:35.148Z,10.47
2019-05-19T00:09:06.578Z,10.00
2019-05-19T00:11:37.154Z,10.50
2019-05-19T00:14:07.842Z,10.07
2019-05-19T00:16:38.439Z,10.90
2019-05-19T00:19:09.069Z,10.90
2019-05-19T00:21:39.642Z,10.40
2019-05-19T00:24:10.240Z,10.67
2019-05-19T00:26:40.821Z,11.07
2019-05-19T00:29:11.393Z,12.13
2019-05-19T00:31:41.971Z,11.27
2019-05-19T00:34:12.553Z,10.20
2019-05-19T00:36:43.150Z,10.70
2019-05-19T00:39:13.739Z,12.63
2019-05-19T00:41:44.370Z,14.67
2019-05-19T00:44:14.942Z,13.50
2019-05-19T00:46:45.581Z,12.33
2019-05-19T00:49:17.109Z,13.30
2019-05-19T00:51:47.775Z,12.30
2019-05-19T00:54:18.373Z,12.40
2019-05-19T00:56:49.949Z,11.10
2019-05-19T00:59:21.257Z,11.07
2019-05-19T01:01:52.041Z,10.87
2019-05-19T01:04:22.724Z,10.23
2019-05-19T01:06:53.321Z,11.13
2019-05-19T01:09:23.903Z,10.87
2019-05-19T01:11:54.471Z,10.40
2019-05-19T01:14:25.061Z,11.00
2019-05-19T01:16:56.746Z,11.37
2019-05-19T01:19:27.659Z,11.73
2019-05-19T01:22:00.777Z,13.43
2019-05-19T01:24:31.510Z,12.17
2019-05-19T01:27:02.093Z,11.43
2019-05-19T01:29:32.742Z,12.20
2019-05-19T01:32:04.858Z,11.00
2019-05-19T01:34:35.540Z,11.23
2019-05-19T01:37:06.121Z,10.50
2019-05-19T01:39:36.688Z,11.07
2019-05-19T01:42:07.286Z,11.10
2019-05-19T01:44:37.874Z,12.40
2019-05-19T01:47:08.454Z,10.83
2019-05-19T01:49:39.077Z,12.60
2019-05-19T01:52:10.737Z,12.87
2019-05-19T01:54:41.337Z,10.87
2019-05-19T01:57:11.994Z,11.43
2019-05-19T01:59:42.598Z,11.27
2019-05-19T02:02:13.284Z,10.77
2019-05-19T02:04:43.920Z,10.67
2019-05-19T02:07:14.467Z,12.40
2019-05-19T02:09:45.048Z,12.50
2019-05-19T02:12:15.631Z,13.87
2019-05-19T02:14:46.217Z,12.97
2019-05-19T02:17:16.791Z,13.27
2019-05-19T02:19:47.369Z,12.57
2019-05-19T02:22:17.949Z,11.63
2019-05-19T02:24:48.536Z,12.83
2019-05-19T02:27:19.143Z,13.87
2019-05-19T02:29:49.720Z,13.47
2019-05-19T02:32:20.300Z,14.70
2019-05-19T02:34:51.448Z,13.73
2019-05-19T02:37:22.033Z,13.00
2019-05-19T02:39:52.601Z,12.27
2019-05-19T02:42:25.922Z,13.43
2019-05-19T02:44:58.607Z,13.60
2019-05-19T02:47:31.444Z,15.37
2019-05-19T02:50:03.489Z,13.87
2019-05-19T02:52:34.802Z,14.37
2019-05-19T02:55:06.328Z,14.10
2019-05-19T02:57:38.233Z,16.10
2019-05-19T03:00:10.654Z,15.50
2019-05-19T03:02:41.237Z,14.80
2019-05-19T03:05:11.969Z,15.90
2019-05-19T03:07:42.564Z,16.40
2019-05-19T03:10:13.600Z,14.13
2019-05-19T03:12:44.171Z,15.73
2019-05-19T03:15:14.754Z,15.33
2019-05-19T03:17:45.438Z,15.57
2019-05-19T03:20:16.005Z,15.87
2019-05-19T03:22:46.600Z,16.30
2019-05-19T03:25:17.311Z,16.37
2019-05-19T03:27:47.961Z,14.97
2019-05-19T03:30:36.413Z,14.60
2019-05-19T03:33:11.593Z,14.97
2019-05-19T03:35:42.170Z,13.00
2019-05-19T03:38:12.735Z,15.10
2019-05-19T03:40:43.324Z,13.23
2019-05-19T03:43:13.998Z,12.87
2019-05-19T03:45:44.578Z,13.73
2019-05-19T03:48:15.184Z,13.73
2019-05-19T03:50:45.767Z,14.07
2019-05-19T03:53:16.375Z,15.13
2019-05-19T03:55:46.972Z,15.00
2019-05-19T03:58:17.542Z,14.53
2019-05-19T04:00:48.171Z,14.80
2019-05-19T04:03:18.747Z,16.03
2019-05-19T04:05:49.325Z,15.47
2019-05-19T04:08:19.904Z,16.70
2019-05-19T04:10:50.492Z,17.43
2019-05-19T04:13:21.087Z,16.63
2019-05-19T04:15:51.695Z,15.80
2019-05-19T04:18:22.307Z,16.73
2019-05-19T04:20:53.090Z,16.03
2019-05-19T04:23:23.696Z,15.67
2019-05-19T04:25:54.389Z,17.37
2019-05-19T04:28:24.958Z,16.20
2019-05-19T04:30:55.543Z,17.40
2019-05-19T04:33:26.155Z,16.40
2019-05-19T04:35:57.722Z,16.07
2019-05-19T04:38:28.490Z,17.13
2019-05-19T04:40:59.421Z,16.63
2019-05-19T04:43:30.245Z,14.93
2019-05-19T04:46:00.810Z,16.77
2019-05-19T04:48:31.587Z,14.90
2019-05-19T04:51:03.810Z,15.27
2019-05-19T04:53:35.076Z,16.13
2019-05-19T04:56:05.689Z,16.43
2019-05-19T04:58:36.277Z,17.33
2019-05-19T05:01:07.117Z,16.10
2019-05-19T05:03:37.767Z,16.87
2019-05-19T05:06:08.526Z,16.97
2019-05-19T05:08:39.471Z,22.73
2019-05-19T05:11:10.099Z,19.83
2019-05-19T05:13:41.433Z,18.03
2019-05-19T05:16:12.060Z,18.80
2019-05-19T05:18:43.417Z,20.10
2019-05-19T05:21:15.152Z,16.67
2019-05-19T05:23:45.858Z,17.53
2019-05-19T05:26:16.477Z,87.93
2019-05-19T05:28:47.072Z,31.57
2019-05-19T05:31:17.770Z,29.43
2019-05-19T05:33:49.531Z,23.43
2019-05-19T05:36:20.169Z,20.40
2019-05-19T05:38:51.012Z,19.33
2019-05-19T05:41:21.603Z,17.83
2019-05-19T05:43:52.192Z,17.47
2019-05-19T05:46:22.909Z,18.53
2019-05-19T05:48:54.621Z,18.77
2019-05-19T05:51:25.218Z,18.23
2019-05-19T05:53:55.810Z,17.40
2019-05-19T05:56:26.445Z,18.43
2019-05-19T05:58:57.195Z,16.97
2019-05-19T06:01:28.186Z,17.40
2019-05-19T06:03:59.718Z,18.83
2019-05-19T06:06:30.833Z,18.03
2019-05-19T06:09:05.299Z,18.10
2019-05-19T06:11:35.993Z,18.43
2019-05-19T06:14:07.014Z,18.17
2019-05-19T06:16:38.595Z,18.37
2019-05-19T06:19:09.314Z,18.80
2019-05-19T06:21:39.914Z,17.03
2019-05-19T06:24:10.548Z,17.93
2019-05-19T06:26:41.866Z,18.47
2019-05-19T06:29:12.634Z,19.43
2019-05-19T06:31:43.655Z,19.50
2019-05-19T06:34:14.675Z,21.37
2019-05-19T06:36:45.607Z,19.93
2019-05-19T06:39:17.018Z,19.20
2019-05-19T06:41:48.437Z,19.17
2019-05-19T06:44:19.167Z,19.83
2019-05-19T06:46:50.525Z,19.80
2019-05-19T06:49:21.793Z,19.20
2019-05-19T06:51:52.493Z,20.67
2019-05-19T06:54:23.123Z,20.03
2019-05-19T06:56:53.856Z,19.43
2019-05-19T06:59:24.421Z,19.80
2019-05-19T07:01:55.033Z,22.20
2019-05-19T07:04:26.244Z,19.87
2019-05-19T07:06:57.679Z,19.67
2019-05-19T07:09:30.259Z,19.87
2019-05-19T07:12:01.655Z,17.07
2019-05-19T07:14:32.425Z,13.40
2019-05-19T07:17:03.284Z,10.07
2019-05-19T07:19:34.351Z,11.07
2019-05-19T07:22:05.234Z,10.13
2019-05-19T07:24:36.515Z,8.20
2019-05-19T07:27:08.749Z,8.13
2019-05-19T07:29:39.885Z,7.93
2019-05-19T07:32:11.339Z,8.53
2019-05-19T07:34:42.298Z,8.50
2019-05-19T07:37:13.394Z,8.57
2019-05-19T07:39:44.364Z,11.03
2019-05-19T07:42:15.196Z,9.20
2019-05-19T07:44:47.237Z,7.23
2019-05-19T07:47:18.354Z,6.87
2019-05-19T07:49:49.250Z,34.10
2019-05-19T07:52:20.677Z,11.73
2019-05-19T07:54:51.278Z,8.33
2019-05-19T07:57:22.433Z,7.27
2019-05-19T07:59:53.364Z,32.73
2019-05-19T08:02:23.982Z,13.30
2019-05-19T08:04:55.000Z,11.60
2019-05-19T08:07:25.732Z,9.33
2019-05-19T08:09:56.284Z,6.90
2019-05-19T08:12:27.202Z,6.23
2019-05-19T08:14:57.959Z,5.53
2019-05-19T08:17:28.846Z,5.60
2019-05-19T08:19:59.416Z,7.77
2019-05-19T08:22:29.985Z,8.50
2019-05-19T08:25:01.650Z,7.07
2019-05-19T08:27:32.727Z,6.03
2019-05-19T08:30:05.332Z,6.50
2019-05-19T08:32:35.899Z,7.10
2019-05-19T08:35:07.302Z,6.17
2019-05-19T08:37:37.980Z,5.60
2019-05-19T08:40:09.028Z,4.83
2019-05-19T08:42:39.597Z,5.07
2019-05-19T08:45:11.203Z,4.60
2019-05-19T08:47:42.260Z,5.70
2019-05-19T08:50:14.431Z,6.47
2019-05-19T08:52:45.777Z,5.50
2019-05-19T08:55:17.392Z,5.37
2019-05-19T08:57:48.106Z,5.08
2019-05-19T09:00:19.857Z,5.60
2019-05-19T09:02:50.433Z,5.60
2019-05-19T09:05:21.324Z,4.70
2019-05-19T09:07:52.387Z,6.10
2019-05-19T09:10:23.223Z,5.35
2019-05-19T09:12:54.359Z,5.35
2019-05-19T09:15:25.146Z,5.35
2019-05-19T09:17:55.938Z,5.72
2019-05-19T09:20:26.602Z,5.12
2019-05-19T09:22:57.620Z,5.92
2019-05-19T09:25:28.384Z,6.75
2019-05-19T09:27:59.112Z,6.42
2019-05-19T09:30:29.832Z,6.20
2019-05-19T09:33:00.449Z,5.50
2019-05-19T09:35:31.276Z,5.83
2019-05-19T09:38:03.603Z,6.08
2019-05-19T09:40:34.681Z,6.40
2019-05-19T09:43:05.528Z,5.95
2019-05-19T09:45:36.059Z,6.70
2019-05-19T09:48:06.734Z,5.92
2019-05-19T09:50:37.514Z,7.53
2019-05-19T09:53:08.252Z,6.67
2019-05-19T09:55:39.039Z,7.40
2019-05-19T09:58:09.728Z,7.12
2019-05-19T10:00:40.307Z,7.97
2019-05-19T10:03:11.417Z,7.67
2019-05-19T10:05:42.218Z,8.18
2019-05-19T10:08:13.492Z,9.00
2019-05-19T10:10:56.959Z,9.70
2019-05-19T10:13:28.259Z,11.08
2019-05-19T10:15:59.173Z,11.83
2019-05-19T10:18:30.394Z,12.90
2019-05-19T10:21:01.226Z,12.33
2019-05-19T10:23:32.098Z,11.97
2019-05-19T10:26:02.802Z,15.48
2019-05-19T10:28:33.478Z,15.10
2019-05-19T10:31:04.426Z,15.53
2019-05-19T10:33:35.434Z,16.00
2019-05-19T10:36:07.523Z,15.37
2019-05-19T10:38:38.170Z,16.30
2019-05-19T10:41:08.953Z,18.70
2019-05-19T10:43:39.967Z,16.73
2019-05-19T10:46:10.765Z,18.23
2019-05-19T10:48:43.501Z,19.23
2019-05-19T10:51:15.811Z,20.23
2019-05-19T10:53:46.578Z,19.57
2019-05-19T10:56:19.138Z,23.53
2019-05-19T10:58:51.299Z,22.80
2019-05-19T11:01:22.120Z,23.43
2019-05-19T11:03:53.127Z,22.03
2019-05-19T11:06:24.080Z,22.63
2019-05-19T11:08:55.231Z,24.20
2019-05-19T11:11:26.642Z,22.83
2019-05-19T11:13:57.800Z,18.10
2019-05-19T11:16:28.882Z,15.53
2019-05-19T11:19:01.587Z,17.50
2019-05-19T11:21:32.334Z,15.40
2019-05-19T11:24:03.344Z,13.63
2019-05-19T11:26:34.751Z,13.70
2019-05-19T11:29:06.152Z,12.97
2019-05-19T11:31:37.025Z,13.27
2019-05-19T11:34:08.498Z,13.10
2019-05-19T11:36:39.387Z,12.03
2019-05-19T11:39:10.206Z,12.20
2019-05-19T11:41:41.369Z,11.97
2019-05-19T11:44:12.713Z,11.07
2019-05-19T11:46:43.498Z,11.10
2019-05-19T11:49:14.748Z,10.47
2019-05-19T11:51:45.717Z,9.90
2019-05-19T11:54:17.470Z,10.20
2019-05-19T11:56:48.091Z,8.93
2019-05-19T11:59:18.748Z,9.97
2019-05-19T12:01:49.319Z,9.70
2019-05-19T12:04:20.147Z,9.80
2019-05-19T12:06:50.913Z,10.03
2019-05-19T12:09:21.534Z,9.75
2019-05-19T12:11:52.085Z,10.82
2019-05-19T12:14:22.658Z,10.68
2019-05-19T12:16:53.445Z,11.08
2019-05-19T12:19:26.002Z,12.28
2019-05-19T12:21:56.607Z,12.55
2019-05-19T12:24:27.297Z,11.97
2019-05-19T12:26:58.105Z,12.63
2019-05-19T12:29:28.839Z,12.53
2019-05-19T12:32:00.176Z,13.10
2019-05-19T12:34:32.604Z,12.85
2019-05-19T12:37:03.843Z,11.95
2019-05-19T12:39:36.220Z,12.57
2019-05-19T12:42:07.419Z,11.27
2019-05-19T12:44:38.540Z,10.68
2019-05-19T12:47:10.059Z,10.00
2019-05-19T12:49:58.727Z,9.60
2019-05-19T12:52:29.843Z,10.13
2019-05-19T12:55:00.624Z,9.73
2019-05-19T12:57:32.612Z,9.03
2019-05-19T13:00:03.363Z,9.03
2019-05-19T13:02:34.435Z,7.87
2019-05-19T13:05:06.536Z,7.45
2019-05-19T13:07:37.293Z,7.10
2019-05-19T13:10:08.396Z,6.67
2019-05-19T13:12:39.057Z,7.70
2019-05-19T13:15:10.185Z,8.30
2019-05-19T13:17:40.780Z,7.30
2019-05-19T13:20:12.289Z,9.00
2019-05-19T13:22:42.947Z,8.13
2019-05-19T13:25:14.491Z,7.53
2019-05-19T13:27:45.069Z,7.67
2019-05-19T13:30:15.886Z,7.83
2019-05-19T13:32:46.486Z,7.93
2019-05-19T13:35:17.187Z,7.93
2019-05-19T13:37:49.646Z,7.13
2019-05-19T13:40:20.380Z,7.43
2019-05-19T13:42:50.966Z,7.80
2019-05-19T13:45:21.749Z,7.67
2019-05-19T13:47:52.357Z,7.00
2019-05-19T13:50:24.035Z,6.53
2019-05-19T13:52:54.684Z,7.57
2019-05-19T13:55:25.255Z,7.30
2019-05-19T13:57:55.951Z,7.03
2019-05-19T14:00:26.692Z,7.47
2019-05-19T14:02:58.767Z,7.00
2019-05-19T14:05:29.621Z,6.53
2019-05-19T14:08:00.737Z,6.80
2019-05-19T14:10:32.205Z,6.43
2019-05-19T14:13:04.371Z,6.37
2019-05-19T14:15:35.094Z,6.67
2019-05-19T14:18:05.798Z,6.65
2019-05-19T14:20:36.416Z,5.97
2019-05-19T14:23:07.157Z,6.70
2019-05-19T14:25:37.926Z,6.10
2019-05-19T14:28:08.704Z,6.50
2019-05-19T14:30:39.282Z,6.85
2019-05-19T14:33:10.084Z,6.42
2019-05-19T14:35:40.763Z,6.75
2019-05-19T14:38:11.337Z,8.53
2019-05-19T14:40:42.680Z,6.47
2019-05-19T14:43:14.325Z,7.08
2019-05-19T14:45:44.913Z,6.33
2019-05-19T14:48:15.542Z,6.30
2019-05-19T14:50:46.152Z,5.40
2019-05-19T14:53:16.712Z,4.97
2019-05-19T14:55:47.388Z,5.22
2019-05-19T14:58:17.947Z,5.22
2019-05-19T15:00:48.522Z,5.08
2019-05-19T15:03:19.869Z,5.20
2019-05-19T15:05:50.425Z,4.08
2019-05-19T15:08:21.005Z,4.70
2019-05-19T15:10:51.663Z,4.50
2019-05-19T15:13:22.262Z,4.58
2019-05-19T15:15:52.798Z,4.87
2019-05-19T15:18:23.373Z,4.60
2019-05-19T15:20:53.965Z,6.47
2019-05-19T15:23:24.580Z,6.28
2019-05-19T15:25:55.261Z,8.70
2019-05-19T15:28:25.950Z,9.70
2019-05-19T15:30:56.636Z,23.87
2019-05-19T15:33:28.357Z,6.15
2019-05-19T15:35:58.923Z,7.33
2019-05-19T15:38:29.548Z,6.37
2019-05-19T15:41:00.080Z,5.70
2019-05-19T15:43:30.740Z,4.08
2019-05-19T15:46:01.344Z,3.70
2019-05-19T15:48:32.009Z,10.30
2019-05-19T15:51:04.063Z,3.87
2019-05-19T15:53:34.641Z,3.80
2019-05-19T15:56:05.223Z,3.23
2019-05-19T15:58:36.038Z,4.93
2019-05-19T16:01:06.616Z,4.50
2019-05-19T16:03:37.182Z,4.17
2019-05-19T16:06:07.853Z,4.83
2019-05-19T16:08:38.437Z,4.80
2019-05-19T16:11:09.021Z,4.90
2019-05-19T16:13:40.062Z,4.30
2019-05-19T16:16:10.622Z,4.37
2019-05-19T16:18:41.503Z,3.80
2019-05-19T16:21:13.655Z,4.07
2019-05-19T16:23:44.402Z,4.10
2019-05-19T16:26:14.961Z,4.47
2019-05-19T16:28:45.516Z,4.30
2019-05-19T16:31:16.141Z,5.37
2019-05-19T16:33:46.702Z,5.80
2019-05-19T16:36:17.661Z,5.30
2019-05-19T16:38:49.065Z,4.77
2019-05-19T16:41:19.639Z,5.97
2019-05-19T16:43:50.196Z,5.03
2019-05-19T16:46:20.798Z,5.77
2019-05-19T16:48:51.441Z,5.20
2019-05-19T16:51:22.054Z,5.77
2019-05-19T16:53:54.437Z,5.07
2019-05-19T16:56:25.987Z,7.63
2019-05-19T16:58:56.592Z,14.20
2019-05-19T17:01:27.388Z,41.63
2019-05-19T17:04:00.268Z,30.60
2019-05-19T17:06:32.443Z,40.60
2019-05-19T17:09:05.707Z,42.83
2019-05-19T17:11:37.051Z,18.87
2019-05-19T17:14:08.280Z,29.23
2019-05-19T17:16:39.426Z,22.80
2019-05-19T17:19:09.997Z,13.40
2019-05-19T17:21:41.364Z,7.20
2019-05-19T17:24:12.782Z,10.67
2019-05-19T17:26:43.844Z,9.40
2019-05-19T17:29:14.966Z,5.93
2019-05-19T17:31:46.506Z,8.17
2019-05-19T17:34:20.517Z,14.37
2019-05-19T17:36:52.048Z,12.20
2019-05-19T17:39:24.147Z,5.83
2019-05-19T17:41:54.871Z,10.63
2019-05-19T17:44:26.345Z,14.63
2019-05-19T17:46:57.668Z,11.80
2019-05-19T17:49:28.489Z,8.77
2019-05-19T17:52:00.092Z,9.47
2019-05-19T17:54:32.270Z,11.00
2019-05-19T17:57:04.114Z,12.17
2019-05-19T17:59:36.044Z,11.70
2019-05-19T18:02:07.169Z,10.87
2019-05-19T18:04:37.893Z,12.20
2019-05-19T18:07:08.832Z,26.17
2019-05-19T18:09:39.781Z,78.23
2019-05-19T18:12:12.224Z,19.13
2019-05-19T18:14:43.195Z,11.23
2019-05-19T18:17:13.952Z,13.33
2019-05-19T18:19:44.557Z,8.60
2019-05-19T18:22:15.572Z,6.77
2019-05-19T18:24:46.489Z,6.73
2019-05-19T18:27:17.385Z,6.77
2019-05-19T18:29:49.288Z,5.67
2019-05-19T18:32:20.596Z,5.60
2019-05-19T18:34:51.789Z,4.77
2019-05-19T18:37:25.770Z,4.23
2019-05-19T18:39:59.155Z,4.20
2019-05-19T18:42:31.559Z,3.83
2019-05-19T18:45:02.914Z,3.93
2019-05-19T18:47:33.643Z,4.30
2019-05-19T18:50:08.604Z,3.60
2019-05-19T18:52:39.388Z,4.13
2019-05-19T18:55:11.957Z,3.70
2019-05-19T18:57:43.230Z,3.90
2019-05-19T19:00:16.983Z,3.93
2019-05-19T19:02:49.644Z,4.30
2019-05-19T19:05:20.872Z,4.67
2019-05-19T19:07:55.719Z,4.87
2019-05-19T19:10:28.401Z,4.87
2019-05-19T19:12:59.343Z,5.20
2019-05-19T19:15:30.274Z,4.30
2019-05-19T19:18:01.542Z,3.83
2019-05-19T19:20:32.418Z,4.53
2019-05-19T19:23:05.227Z,4.57
2019-05-19T19:25:39.553Z,5.50
2019-05-19T19:28:10.899Z,4.40
2019-05-19T19:30:43.680Z,4.13
2019-05-19T19:33:14.780Z,3.93
2019-05-19T19:35:47.556Z,4.20
2019-05-19T19:38:18.346Z,5.07
2019-05-19T19:40:50.407Z,4.03
2019-05-19T19:43:20.836Z,4.27
2019-05-19T19:45:54.006Z,3.97
2019-05-19T19:48:24.883Z,4.13
2019-05-19T19:50:55.766Z,3.30
2019-05-19T19:53:26.605Z,4.93
2019-05-19T19:55:57.384Z,4.40
2019-05-19T19:58:27.801Z,3.73
2019-05-19T20:01:01.903Z,3.47
2019-05-19T20:03:32.561Z,2.77
2019-05-19T20:06:06.682Z,3.63
2019-05-19T20:08:37.858Z,3.00
2019-05-19T20:11:08.901Z,3.10
2019-05-19T20:13:42.702Z,2.77
2019-05-19T20:16:14.503Z,3.20
2019-05-19T20:18:45.648Z,2.90
2019-05-19T20:21:16.558Z,4.87
2019-05-19T20:23:48.028Z,2.73
2019-05-19T20:26:19.848Z,2.70
2019-05-19T20:28:50.676Z,3.70
2019-05-19T20:31:22.307Z,2.40
2019-05-19T20:33:52.839Z,6.63
2019-05-19T20:36:24.316Z,3.23
2019-05-19T20:38:55.460Z,3.00
2019-05-19T20:41:26.125Z,2.83
2019-05-19T20:43:57.631Z,2.70
2019-05-19T20:46:28.484Z,2.37
2019-05-19T20:49:00.701Z,2.57
2019-05-19T20:51:33.806Z,2.67
2019-05-19T20:54:05.307Z,2.40
2019-05-19T20:56:36.520Z,2.63
2019-05-19T20:59:07.247Z,2.50
2019-05-19T21:01:37.936Z,2.77
2019-05-19T21:04:08.503Z,2.70
2019-05-19T21:06:39.873Z,3.00
2019-05-19T21:09:11.355Z,2.70
2019-05-19T21:11:42.201Z,3.07
2019-05-19T21:14:12.902Z,2.80
2019-05-19T21:16:43.638Z,3.03
2019-05-19T21:19:14.633Z,3.07
2019-05-19T21:21:45.207Z,3.00
2019-05-19T21:24:15.913Z,2.73
2019-05-19T21:26:46.633Z,2.67
2019-05-19T21:29:17.204Z,2.90
2019-05-19T21:31:47.871Z,2.43
2019-05-19T21:34:18.449Z,2.80
2019-05-19T21:36:49.970Z,2.70
2019-05-19T21:39:21.674Z,3.20
2019-05-19T21:41:52.257Z,2.77
2019-05-19T21:44:22.816Z,2.93
2019-05-19T21:46:53.388Z,2.90
2019-05-19T21:49:23.964Z,2.70
2019-05-19T21:51:54.678Z,3.00
2019-05-19T21:54:25.383Z,3.37
2019-05-19T21:56:56.041Z,4.87
2019-05-19T21:59:27.875Z,3.70
2019-05-19T22:01:59.083Z,5.67
2019-05-19T22:04:29.743Z,4.43
2019-05-19T22:07:01.945Z,3.90
2019-05-19T22:09:32.530Z,3.07
2019-05-19T22:12:04.616Z,3.13
2019-05-19T22:14:35.315Z,3.20
2019-05-19T22:17:06.083Z,3.20
2019-05-19T22:19:36.666Z,2.93
2019-05-19T22:22:07.322Z,3.03
2019-05-19T22:24:38.274Z,3.33
2019-05-19T22:27:08.996Z,2.80
2019-05-19T22:29:39.681Z,3.30
2019-05-19T22:32:10.230Z,2.50
2019-05-19T22:34:40.812Z,2.90
2019-05-19T22:37:11.382Z,3.43
2019-05-19T22:39:41.949Z,3.23
2019-05-19T22:42:12.611Z,3.30
2019-05-19T22:44:43.261Z,3.17
2019-05-19T22:47:14.105Z,3.50
2019-05-19T22:49:44.886Z,3.40
2019-05-19T22:52:16.612Z,3.30
2019-05-19T22:54:47.173Z,3.27
2019-05-19T22:57:18.201Z,2.80
2019-05-19T22:59:48.880Z,3.17
2019-05-19T23:02:19.624Z,2.67
2019-05-19T23:04:50.705Z,3.20
2019-05-19T23:07:22.323Z,3.17
2019-05-19T23:09:53.068Z,3.20
2019-05-19T23:12:23.902Z,3.30
2019-05-19T23:14:54.576Z,3.37
2019-05-19T23:17:25.243Z,3.70
2019-05-19T23:19:58.000Z,3.50
2019-05-19T23:22:28.787Z,3.57
2019-05-19T23:24:59.585Z,3.37
2019-05-19T23:27:30.343Z,3.80
2019-05-19T23:30:01.026Z,3.53
2019-05-19T23:32:31.759Z,4.23
2019-05-19T23:35:05.335Z,4.10
2019-05-19T23:37:35.903Z,3.67
2019-05-19T23:40:08.979Z,3.77
2019-05-19T23:42:40.431Z,4.23
2019-05-19T23:45:11.377Z,3.87
2019-05-19T23:47:42.036Z,4.00
2019-05-19T23:50:13.638Z,4.20
2019-05-19T23:52:44.593Z,4.23
2019-05-19T23:55:15.233Z,4.63
2019-05-19T23:57:45.781Z,4.60
